createdAt,value
2022-10-02T00:02:07.877Z,9.27
2022-10-02T00:04:45.404Z,11.50
2022-10-02T00:07:14.273Z,8.93
2022-10-02T00:09:49.320Z,7.50
2022-10-02T00:12:21.169Z,9.93
2022-10-02T00:14:55.552Z,13.60
2022-10-02T00:17:29.415Z,12.27
2022-10-02T00:19:58.146Z,8.90
2022-10-02T00:22:43.580Z,7.37
2022-10-02T00:25:23.347Z,8.93
2022-10-02T00:28:10.452Z,6.27
2022-10-02T00:30:55.755Z,8.97
2022-10-02T00:33:33.176Z,7.37
2022-10-02T00:36:17.158Z,7.17
2022-10-02T00:38:55.235Z,7.83
2022-10-02T00:42:17.682Z,5.87
2022-10-02T00:45:13.181Z,7.17
2022-10-02T00:47:53.280Z,5.87
2022-10-02T00:50:35.393Z,9.43
2022-10-02T00:53:28.033Z,8.07
2022-10-02T00:56:05.783Z,9.17
2022-10-02T00:59:08.961Z,5.20
2022-10-02T01:01:42.580Z,9.53
2022-10-02T01:04:16.756Z,4.00
2022-10-02T01:06:44.961Z,13.03
2022-10-02T01:09:13.437Z,4.17
2022-10-02T01:11:41.921Z,4.80
2022-10-02T01:14:10.525Z,7.10
2022-10-02T01:16:41.931Z,6.53
2022-10-02T01:19:25.775Z,6.23
2022-10-02T01:22:00.769Z,6.07
2022-10-02T01:24:35.389Z,7.77
2022-10-02T01:27:05.059Z,5.87
2022-10-02T01:29:33.263Z,4.90
2022-10-02T01:32:02.496Z,9.27
2022-10-02T01:34:31.287Z,7.53
2022-10-02T01:36:59.744Z,8.70
2022-10-02T01:39:28.361Z,6.30
2022-10-02T01:41:56.705Z,5.50
2022-10-02T01:44:35.305Z,3.77
2022-10-02T01:47:09.455Z,5.37
2022-10-02T01:50:01.923Z,7.23
2022-10-02T01:52:45.866Z,8.90
2022-10-02T01:55:28.422Z,4.27
2022-10-02T01:58:14.418Z,5.63
2022-10-02T02:01:00.676Z,5.83
2022-10-02T02:03:42.659Z,5.73
2022-10-02T02:06:22.996Z,8.20
2022-10-02T02:09:03.078Z,4.10
2022-10-02T02:11:31.715Z,6.97
2022-10-02T02:14:05.189Z,7.10
2022-10-02T02:16:42.008Z,7.33
2022-10-02T02:19:17.559Z,2.97
2022-10-02T02:21:51.406Z,4.80
2022-10-02T02:24:26.803Z,9.00
2022-10-02T02:26:57.839Z,3.73
2022-10-02T02:29:29.507Z,3.57
2022-10-02T02:32:01.735Z,7.50
2022-10-02T02:34:35.196Z,3.40
2022-10-02T02:37:13.764Z,6.40
2022-10-02T02:39:48.553Z,5.80
2022-10-02T02:42:22.770Z,4.03
2022-10-02T02:44:58.826Z,6.27
2022-10-02T02:47:35.726Z,4.27
2022-10-02T02:50:11.668Z,4.07
2022-10-02T02:52:45.299Z,3.83
2022-10-02T02:55:20.243Z,3.23
2022-10-02T02:57:54.527Z,4.17
2022-10-02T03:00:24.286Z,4.97
2022-10-02T03:02:54.707Z,7.03
2022-10-02T03:05:25.266Z,7.03
2022-10-02T03:07:58.705Z,7.90
2022-10-02T03:10:44.727Z,3.43
2022-10-02T03:13:30.161Z,4.57
2022-10-02T03:16:18.027Z,5.03
2022-10-02T03:19:04.138Z,5.10
2022-10-02T03:21:42.145Z,4.93
2022-10-02T03:24:18.714Z,4.33
2022-10-02T03:26:54.628Z,4.40
2022-10-02T03:29:30.642Z,7.13
2022-10-02T03:32:00.747Z,6.00
2022-10-02T03:34:32.895Z,8.97
2022-10-02T03:37:02.104Z,7.03
2022-10-02T03:39:30.597Z,10.30
2022-10-02T03:41:59.353Z,7.70
2022-10-02T03:44:27.671Z,8.93
2022-10-02T03:46:55.946Z,8.07
2022-10-02T03:49:24.255Z,5.87
2022-10-02T03:51:53.892Z,9.40
2022-10-02T03:54:23.535Z,6.27
2022-10-02T03:56:57.190Z,2.90
2022-10-02T03:59:40.982Z,8.33
2022-10-02T04:02:17.095Z,9.27
2022-10-02T04:04:50.529Z,8.07
2022-10-02T04:07:27.134Z,8.33
2022-10-02T04:10:22.594Z,7.93
2022-10-02T04:12:55.546Z,6.53
2022-10-02T04:15:29.188Z,6.70
2022-10-02T04:18:04.534Z,9.27
2022-10-02T04:20:38.006Z,9.33
2022-10-02T04:23:18.354Z,9.60
2022-10-02T04:25:51.204Z,7.60
2022-10-02T04:28:26.770Z,8.40
2022-10-02T04:30:55.492Z,9.80
2022-10-02T04:33:26.011Z,6.63
2022-10-02T04:36:07.398Z,7.63
2022-10-02T04:39:08.654Z,5.40
2022-10-02T04:42:02.037Z,8.13
2022-10-02T04:44:53.589Z,11.40
2022-10-02T04:47:52.199Z,7.93
2022-10-02T04:50:37.984Z,11.00
2022-10-02T04:53:45.297Z,8.30
2022-10-02T04:56:36.116Z,7.67
2022-10-02T04:59:25.807Z,6.43
2022-10-02T05:02:14.646Z,8.20
2022-10-02T05:05:20.434Z,8.63
2022-10-02T05:08:16.597Z,7.73
2022-10-02T05:11:13.913Z,8.90
2022-10-02T05:14:09.674Z,11.00
2022-10-02T05:16:57.729Z,9.50
2022-10-02T05:19:58.773Z,5.80
2022-10-02T05:22:57.355Z,5.30
2022-10-02T05:25:48.842Z,6.17
2022-10-02T05:28:48.073Z,11.63
2022-10-02T05:31:33.349Z,6.50
2022-10-02T05:34:18.090Z,8.20
2022-10-02T05:37:13.140Z,6.33
2022-10-02T05:39:49.061Z,4.60
2022-10-02T05:42:27.671Z,5.53
2022-10-02T05:45:04.292Z,7.07
2022-10-02T05:47:37.681Z,6.20
2022-10-02T05:50:17.977Z,9.93
2022-10-02T05:52:56.121Z,5.93
2022-10-02T05:55:31.103Z,5.20
2022-10-02T05:58:07.090Z,4.20
2022-10-02T06:00:42.625Z,5.60
2022-10-02T06:03:19.208Z,6.93
2022-10-02T06:05:56.327Z,9.63
2022-10-02T06:08:52.980Z,7.30
2022-10-02T06:11:28.484Z,8.70
2022-10-02T06:14:02.056Z,14.43
2022-10-02T06:16:37.762Z,9.97
2022-10-02T06:19:12.662Z,5.23
2022-10-02T06:21:49.350Z,4.53
2022-10-02T06:24:23.942Z,9.67
2022-10-02T06:26:58.574Z,7.30
2022-10-02T06:30:42.091Z,10.10
2022-10-02T06:33:19.468Z,11.33
2022-10-02T06:36:13.670Z,7.60
2022-10-02T06:39:04.579Z,6.47
2022-10-02T06:41:44.026Z,8.90
2022-10-02T06:44:21.235Z,9.90
2022-10-02T06:47:05.134Z,4.53
2022-10-02T06:49:51.347Z,6.87
2022-10-02T06:52:35.744Z,6.40
2022-10-02T06:55:32.294Z,7.80
2022-10-02T06:58:25.476Z,10.63
2022-10-02T07:01:05.035Z,9.47
2022-10-02T07:04:09.230Z,7.33
2022-10-02T07:06:53.535Z,9.50
2022-10-02T07:09:43.231Z,6.83
2022-10-02T07:12:38.186Z,9.10
2022-10-02T07:15:32.077Z,5.70
2022-10-02T07:18:15.600Z,3.53
2022-10-02T07:20:56.008Z,6.87
2022-10-02T07:23:53.010Z,8.40
2022-10-02T07:26:38.989Z,6.20
2022-10-02T07:29:26.799Z,6.83
2022-10-02T07:32:13.758Z,3.20
2022-10-02T07:34:51.691Z,4.80
2022-10-02T07:37:30.000Z,5.77
2022-10-02T07:40:22.189Z,7.10
2022-10-02T07:43:09.455Z,6.00
2022-10-02T07:45:42.030Z,5.60
2022-10-02T07:48:38.787Z,4.57
2022-10-02T07:51:47.315Z,4.77
2022-10-02T07:54:55.368Z,4.87
2022-10-02T07:57:40.439Z,3.90
2022-10-02T08:00:15.346Z,4.07
2022-10-02T08:02:57.182Z,3.37
2022-10-02T08:05:33.929Z,2.97
2022-10-02T08:08:11.059Z,2.67
2022-10-02T08:10:42.889Z,7.27
2022-10-02T08:13:20.584Z,2.97
2022-10-02T08:15:55.319Z,6.33
2022-10-02T08:18:35.095Z,3.77
2022-10-02T08:21:08.231Z,2.87
2022-10-02T08:23:44.031Z,2.37
2022-10-02T08:26:20.422Z,2.00
2022-10-02T08:29:01.192Z,2.37
2022-10-02T08:31:29.643Z,5.87
2022-10-02T08:34:00.607Z,4.73
2022-10-02T08:37:11.493Z,3.07
2022-10-02T08:40:28.407Z,3.47
2022-10-02T08:43:32.150Z,2.40
2022-10-02T08:47:05.608Z,5.43
2022-10-02T08:50:03.976Z,5.17
2022-10-02T08:53:22.979Z,2.87
2022-10-02T08:56:19.148Z,3.80
2022-10-02T08:59:48.492Z,5.17
2022-10-02T09:03:10.458Z,8.13
2022-10-02T09:06:47.964Z,3.27
2022-10-02T09:09:53.442Z,4.37
2022-10-02T09:13:11.073Z,4.03
2022-10-02T09:15:47.322Z,2.53
2022-10-02T09:18:36.113Z,3.57
2022-10-02T09:21:18.916Z,4.37
2022-10-02T09:24:38.682Z,2.10
2022-10-02T09:27:52.091Z,1.73
2022-10-02T09:31:03.684Z,4.00
2022-10-02T09:34:35.100Z,2.17
2022-10-02T09:37:46.917Z,3.77
2022-10-02T09:41:01.563Z,3.43
2022-10-02T09:44:16.771Z,2.83
2022-10-02T09:47:22.077Z,6.27
2022-10-02T09:50:35.707Z,10.07
2022-10-02T09:53:35.644Z,12.77
2022-10-02T09:56:53.415Z,3.20
2022-10-02T09:59:52.279Z,1.43
2022-10-02T10:03:16.543Z,1.50
2022-10-02T10:06:36.345Z,3.30
2022-10-02T10:09:42.344Z,5.80
2022-10-02T10:13:03.926Z,14.50
2022-10-02T10:16:42.238Z,7.87
2022-10-02T10:19:47.825Z,4.10
2022-10-02T10:23:03.556Z,2.07
2022-10-02T10:25:56.436Z,2.50
2022-10-02T10:29:15.071Z,2.77
2022-10-02T10:32:45.822Z,4.67
2022-10-02T10:35:47.981Z,2.10
2022-10-02T10:38:52.279Z,3.77
2022-10-02T10:41:57.472Z,1.43
2022-10-02T10:44:54.928Z,4.50
2022-10-02T10:47:59.511Z,4.17
2022-10-02T10:50:50.248Z,7.17
2022-10-02T10:53:41.643Z,5.73
2022-10-02T10:56:38.230Z,5.13
2022-10-02T10:59:54.315Z,5.07
2022-10-02T11:03:05.445Z,4.57
2022-10-02T11:06:33.393Z,7.17
2022-10-02T11:09:43.054Z,3.37
2022-10-02T11:13:03.113Z,4.97
2022-10-02T11:16:22.189Z,6.57
2022-10-02T11:19:37.081Z,4.67
2022-10-02T11:22:54.108Z,1.37
2022-10-02T11:26:02.918Z,7.87
2022-10-02T11:29:06.497Z,2.70
2022-10-02T11:32:06.030Z,2.00
2022-10-02T11:35:06.810Z,3.00
2022-10-02T11:38:09.423Z,3.03
2022-10-02T11:41:16.389Z,4.00
2022-10-02T11:44:05.602Z,6.00
2022-10-02T11:46:57.853Z,4.90
2022-10-02T11:50:17.273Z,4.63
2022-10-02T11:53:14.422Z,3.13
2022-10-02T11:55:59.973Z,17.40
2022-10-02T11:58:45.133Z,5.37
2022-10-02T12:01:24.460Z,2.93
2022-10-02T12:04:05.913Z,1.70
2022-10-02T12:07:24.396Z,3.87
2022-10-02T12:10:07.962Z,3.23
2022-10-02T12:12:51.617Z,2.30
2022-10-02T12:15:33.227Z,1.63
2022-10-02T12:18:22.959Z,4.40
2022-10-02T12:21:25.607Z,2.30
2022-10-02T12:24:17.758Z,5.43
2022-10-02T12:26:59.829Z,1.03
2022-10-02T12:29:55.729Z,2.50
2022-10-02T12:32:41.419Z,3.77
2022-10-02T12:35:39.641Z,1.87
2022-10-02T12:38:25.451Z,2.27
2022-10-02T12:41:08.702Z,2.07
2022-10-02T12:44:11.950Z,1.40
2022-10-02T12:47:22.831Z,2.53
2022-10-02T12:50:05.781Z,1.30
2022-10-02T12:53:21.474Z,1.20
2022-10-02T12:56:29.138Z,1.07
2022-10-02T12:59:07.203Z,1.20
2022-10-02T13:02:49.455Z,1.20
2022-10-02T13:05:58.531Z,1.00
2022-10-02T13:08:41.536Z,0.90
2022-10-02T13:11:21.898Z,1.27
2022-10-02T13:14:38.838Z,1.47
2022-10-02T13:17:22.074Z,1.93
2022-10-02T13:23:11.124Z,3.87
2022-10-02T13:25:58.726Z,2.13
2022-10-02T13:28:58.225Z,3.40
2022-10-02T13:31:44.032Z,2.50
2022-10-02T13:34:38.341Z,2.80
2022-10-02T13:37:20.130Z,2.10
2022-10-02T13:40:21.720Z,2.20
2022-10-02T13:43:25.137Z,1.73
2022-10-02T13:46:03.521Z,2.10
2022-10-02T13:48:48.534Z,2.40
2022-10-02T13:51:23.632Z,1.70
2022-10-02T13:54:37.398Z,1.43
2022-10-02T13:57:20.036Z,1.13
2022-10-02T14:00:06.157Z,1.30
2022-10-02T14:02:51.534Z,1.03
2022-10-02T14:05:35.896Z,1.60
2022-10-02T14:08:48.305Z,1.20
2022-10-02T14:11:29.876Z,2.23
2022-10-02T14:14:14.647Z,2.37
2022-10-02T14:17:03.225Z,2.50
2022-10-02T14:20:00.191Z,2.77
2022-10-02T14:22:49.403Z,1.23
2022-10-02T14:25:42.488Z,1.90
2022-10-02T14:28:32.590Z,1.20
2022-10-02T14:31:27.565Z,1.20
2022-10-02T14:34:30.273Z,1.13
2022-10-02T14:37:30.930Z,1.17
2022-10-02T14:40:02.585Z,1.00
2022-10-02T14:42:54.011Z,6.13
2022-10-02T14:46:19.771Z,1.17
2022-10-02T14:49:21.057Z,0.80
2022-10-02T14:52:31.363Z,1.47
2022-10-02T14:55:28.400Z,2.70
2022-10-02T14:58:28.948Z,3.30
2022-10-02T15:01:22.358Z,0.93
2022-10-02T15:04:30.947Z,1.53
2022-10-02T15:07:08.277Z,1.60
2022-10-02T15:10:01.421Z,1.63
2022-10-02T15:12:46.663Z,1.00
2022-10-02T15:15:19.605Z,1.87
2022-10-02T15:18:00.443Z,2.60
2022-10-02T15:20:41.445Z,3.10
2022-10-02T15:23:14.550Z,2.90
2022-10-02T15:26:05.532Z,11.37
2022-10-02T15:28:49.322Z,4.93
2022-10-02T15:31:27.982Z,4.57
2022-10-02T15:34:09.795Z,11.20
2022-10-02T15:36:56.956Z,5.87
2022-10-02T15:40:16.878Z,8.00
2022-10-02T15:42:57.502Z,4.40
2022-10-02T15:46:02.043Z,3.33
2022-10-02T15:48:58.282Z,3.83
2022-10-02T15:52:01.918Z,1.93
2022-10-02T15:54:57.955Z,1.47
2022-10-02T15:57:52.235Z,2.10
2022-10-02T16:00:22.370Z,1.40
2022-10-02T16:03:11.291Z,2.33
2022-10-02T16:05:56.678Z,3.90
2022-10-02T16:09:21.218Z,5.83
2022-10-02T16:12:17.781Z,4.73
2022-10-02T16:15:01.315Z,2.57
2022-10-02T16:17:50.322Z,2.47
2022-10-02T16:20:49.117Z,2.70
2022-10-02T16:23:54.820Z,15.30
2022-10-02T16:27:04.201Z,2.00
2022-10-02T16:29:42.695Z,2.70
2022-10-02T16:32:21.951Z,7.37
2022-10-02T16:35:18.343Z,3.70
2022-10-02T16:37:48.205Z,3.83
2022-10-02T16:40:29.394Z,5.90
2022-10-02T16:43:32.451Z,4.83
2022-10-02T16:46:12.224Z,4.50
2022-10-02T16:48:50.912Z,6.03
2022-10-02T16:51:45.086Z,6.90
2022-10-02T16:54:23.689Z,4.27
2022-10-02T16:56:58.334Z,5.10
2022-10-02T16:59:29.432Z,5.63
2022-10-02T17:02:17.426Z,7.47
2022-10-02T17:04:59.576Z,5.77
2022-10-02T17:07:38.715Z,5.13
2022-10-02T17:10:21.085Z,4.37
2022-10-02T17:12:58.828Z,2.57
2022-10-02T17:15:36.118Z,3.77
2022-10-02T17:18:23.481Z,2.20
2022-10-02T17:20:56.528Z,19.43
2022-10-02T17:23:29.865Z,4.17
2022-10-02T17:26:07.276Z,4.73
2022-10-02T17:28:44.668Z,7.27
2022-10-02T17:31:36.695Z,3.30
2022-10-02T17:34:22.144Z,9.80
2022-10-02T17:37:07.852Z,3.30
2022-10-02T17:39:53.939Z,2.83
2022-10-02T17:42:41.164Z,12.53
2022-10-02T17:45:27.290Z,2.87
2022-10-02T17:48:19.255Z,3.00
2022-10-02T17:51:47.590Z,26.73
2022-10-02T17:54:54.415Z,9.70
2022-10-02T17:57:38.259Z,20.27
2022-10-02T18:00:15.485Z,5.83
2022-10-02T18:03:39.001Z,6.53
2022-10-02T18:06:29.214Z,5.43
2022-10-02T18:09:31.581Z,9.43
2022-10-02T18:12:53.539Z,8.00
2022-10-02T18:15:54.764Z,7.87
2022-10-02T18:18:34.725Z,6.43
2022-10-02T18:21:37.902Z,10.23
2022-10-02T18:24:33.264Z,3.27
2022-10-02T18:27:22.908Z,2.63
2022-10-02T18:30:08.853Z,9.90
2022-10-02T18:33:04.318Z,5.60
2022-10-02T18:35:47.234Z,7.77
2022-10-02T18:38:30.632Z,4.17
2022-10-02T18:41:19.765Z,2.50
2022-10-02T18:44:10.525Z,2.30
2022-10-02T18:46:51.859Z,6.33
2022-10-02T18:49:49.539Z,3.73
2022-10-02T18:52:53.651Z,2.57
2022-10-02T18:56:02.938Z,3.23
2022-10-02T18:58:44.790Z,2.70
2022-10-02T19:01:38.724Z,3.17
2022-10-02T19:04:52.198Z,3.50
2022-10-02T19:07:23.866Z,3.03
2022-10-02T19:10:17.612Z,4.83
2022-10-02T19:12:47.378Z,4.67
2022-10-02T19:15:27.107Z,3.63
2022-10-02T19:18:01.961Z,3.60
2022-10-02T19:20:53.171Z,4.40
2022-10-02T19:23:30.661Z,4.27
2022-10-02T19:26:05.981Z,4.47
2022-10-02T19:28:46.493Z,4.73
2022-10-02T19:31:23.940Z,4.20
2022-10-02T19:33:57.335Z,4.93
2022-10-02T19:36:28.311Z,5.23
2022-10-02T19:39:01.275Z,6.57
2022-10-02T19:41:35.897Z,6.70
2022-10-02T19:44:19.075Z,6.27
2022-10-02T19:46:52.861Z,7.23
2022-10-02T19:49:28.478Z,6.33
2022-10-02T19:51:57.072Z,7.33
2022-10-02T19:54:30.687Z,5.50
2022-10-02T19:57:04.707Z,7.23
2022-10-02T19:59:41.849Z,7.93
2022-10-02T20:02:23.143Z,6.33
2022-10-02T20:04:53.899Z,8.10
2022-10-02T20:07:26.651Z,8.00
2022-10-02T20:09:59.653Z,6.73
2022-10-02T20:12:32.953Z,9.70
2022-10-02T20:15:10.229Z,6.60
2022-10-02T20:17:39.167Z,9.37
2022-10-02T20:20:16.645Z,7.73
2022-10-02T20:22:51.577Z,7.63
2022-10-02T20:25:26.522Z,10.77
2022-10-02T20:28:02.447Z,7.73
2022-10-02T20:30:40.449Z,6.83
2022-10-02T20:33:19.176Z,7.23
2022-10-02T20:35:53.461Z,7.73
2022-10-02T20:38:32.639Z,7.93
2022-10-02T20:41:14.411Z,9.67
2022-10-02T20:43:48.591Z,7.87
2022-10-02T20:47:02.975Z,8.03
2022-10-02T20:50:20.842Z,11.50
2022-10-02T20:53:27.906Z,7.37
2022-10-02T20:56:07.389Z,27.87
2022-10-02T20:59:19.940Z,22.70
2022-10-02T21:02:03.480Z,17.90
2022-10-02T21:05:02.891Z,15.80
2022-10-02T21:07:58.779Z,7.83
2022-10-02T21:11:17.397Z,7.33
2022-10-02T21:14:21.722Z,9.83
2022-10-02T21:17:42.398Z,8.30
2022-10-02T21:20:51.265Z,8.43
2022-10-02T21:23:45.794Z,9.87
2022-10-02T21:27:16.045Z,11.63
2022-10-02T21:30:12.280Z,10.20
2022-10-02T21:33:06.671Z,9.73
2022-10-02T21:35:45.540Z,10.90
2022-10-02T21:38:59.250Z,10.80
2022-10-02T21:42:07.385Z,12.67
2022-10-02T21:45:40.149Z,13.03
2022-10-02T21:48:56.140Z,11.03
2022-10-02T21:52:15.908Z,9.87
2022-10-02T21:55:41.222Z,11.00
2022-10-02T21:59:19.861Z,11.03
2022-10-02T22:02:40.352Z,10.33
2022-10-02T22:06:08.937Z,12.47
2022-10-02T22:09:01.622Z,11.40
2022-10-02T22:11:43.174Z,10.40
2022-10-02T22:14:14.755Z,11.27
2022-10-02T22:16:57.592Z,11.67
2022-10-02T22:19:54.557Z,11.00
2022-10-02T22:22:40.205Z,11.47
2022-10-02T22:25:22.878Z,10.87
2022-10-02T22:28:25.278Z,13.87
2022-10-02T22:31:18.571Z,11.77
2022-10-02T22:34:03.094Z,10.80
2022-10-02T22:37:19.530Z,11.40
2022-10-02T22:39:54.905Z,9.70
2022-10-02T22:42:29.546Z,11.17
2022-10-02T22:45:04.574Z,16.63
2022-10-02T22:47:41.162Z,11.60
2022-10-02T22:50:23.371Z,12.37
2022-10-02T22:53:00.656Z,14.70
2022-10-02T22:55:33.961Z,13.60
2022-10-02T22:58:07.503Z,11.67
2022-10-02T23:00:51.169Z,12.30
2022-10-02T23:03:26.742Z,13.83
2022-10-02T23:06:02.544Z,13.60
2022-10-02T23:08:37.805Z,14.43
2022-10-02T23:11:16.181Z,12.27
2022-10-02T23:13:51.209Z,13.10
2022-10-02T23:16:27.636Z,16.63
2022-10-02T23:19:01.996Z,13.73
2022-10-02T23:21:45.925Z,12.13
2022-10-02T23:24:26.592Z,12.67
2022-10-02T23:27:07.415Z,14.40
2022-10-02T23:29:50.386Z,12.97
2022-10-02T23:32:26.916Z,14.47
2022-10-02T23:35:05.731Z,11.37
2022-10-02T23:37:45.848Z,14.73
2022-10-02T23:40:46.692Z,15.40
2022-10-02T23:43:23.623Z,16.40
2022-10-02T23:46:00.680Z,12.63
2022-10-02T23:48:30.095Z,15.70
2022-10-02T23:51:14.346Z,11.77
2022-10-02T23:54:07.345Z,14.43
2022-10-02T23:57:01.062Z,14.13
2022-10-02T23:59:55.231Z,16.23
